sensor_id;sensor_type;location;lat;lon;timestamp;pressure;altitude;pressure_sealevel;temperature;humidity
78745;BME280;68064;53.100;8.824;2023-03-14T00:00:15;98949.47;;;9.96;78.32
78745;BME280;68064;53.100;8.824;2023-03-14T00:01:18;98949.47;;;9.94;77.45
78745;BME280;68064;53.100;8.824;2023-03-14T00:02:19;98940.84;;;9.88;78.46
78745;BME280;68064;53.100;8.824;2023-03-14T00:03:20;98932.31;;;9.87;78.29
78745;BME280;68064;53.100;8.824;2023-03-14T00:04:22;98934.88;;;9.87;78.55
78745;BME280;68064;53.100;8.824;2023-03-14T00:05:24;98928.88;;;9.87;78.38
78745;BME280;68064;53.100;8.824;2023-03-14T00:06:26;98932.28;;;9.86;78.90
78745;BME280;68064;53.100;8.824;2023-03-14T00:07:27;98923.81;;;9.88;78.09
78745;BME280;68064;53.100;8.824;2023-03-14T00:08:28;98925.47;;;9.86;78.56
78745;BME280;68064;53.100;8.824;2023-03-14T00:09:29;98925.63;;;9.97;77.68
78745;BME280;68064;53.100;8.824;2023-03-14T00:10:30;98915.28;;;9.89;77.68
78745;BME280;68064;53.100;8.824;2023-03-14T00:11:34;98916.28;;;9.97;78.22
78745;BME280;68064;53.100;8.824;2023-03-14T00:12:38;98913.63;;;9.91;77.86
78745;BME280;68064;53.100;8.824;2023-03-14T00:13:40;98912.81;;;9.94;77.26
78745;BME280;68064;53.100;8.824;2023-03-14T00:14:41;98907.88;;;10.06;77.91
78745;BME280;68064;53.100;8.824;2023-03-14T00:15:42;98900.03;;;9.94;77.60
78745;BME280;68064;53.100;8.824;2023-03-14T00:16:45;98902.75;;;10.04;78.29
78745;BME280;68064;53.100;8.824;2023-03-14T00:17:48;98898.25;;;9.88;78.17
78745;BME280;68064;53.100;8.824;2023-03-14T00:18:49;98911.03;;;9.88;78.19
78745;BME280;68064;53.100;8.824;2023-03-14T00:21:39;98902.53;;;9.91;78.61
78745;BME280;68064;53.100;8.824;2023-03-14T00:22:41;98909.38;;;9.92;77.15
78745;BME280;68064;53.100;8.824;2023-03-14T00:23:43;98907.63;;;9.88;77.89
78745;BME280;68064;53.100;8.824;2023-03-14T00:24:44;98892.19;;;9.83;77.65
78745;BME280;68064;53.100;8.824;2023-03-14T00:25:45;98901.72;;;9.93;76.81
78745;BME280;68064;53.100;8.824;2023-03-14T00:26:46;98890.63;;;9.91;76.86
78745;BME280;68064;53.100;8.824;2023-03-14T00:27:47;98900.06;;;9.97;76.86
78745;BME280;68064;53.100;8.824;2023-03-14T00:28:52;98895.75;;;9.93;77.39
78745;BME280;68064;53.100;8.824;2023-03-14T00:29:53;98909.34;;;9.89;77.73
78745;BME280;68064;53.100;8.824;2023-03-14T00:30:54;98905.19;;;9.95;76.65
78745;BME280;68064;53.100;8.824;2023-03-14T00:31:55;98906.84;;;9.93;77.02
78745;BME280;68064;53.100;8.824;2023-03-14T00:32:56;98897.50;;;9.95;76.99
78745;BME280;68064;53.100;8.824;2023-03-14T00:33:57;98890.56;;;9.87;77.27
78745;BME280;68064;53.100;8.824;2023-03-14T00:34:58;98895.69;;;9.88;77.85
78745;BME280;68064;53.100;8.824;2023-03-14T00:36:00;98889.03;;;9.98;77.63
78745;BME280;68064;53.100;8.824;2023-03-14T00:37:03;98907.66;;;9.91;78.05
78745;BME280;68064;53.100;8.824;2023-03-14T00:38:04;98904.97;;;9.83;78.25
78745;BME280;68064;53.100;8.824;2023-03-14T00:39:05;98907.56;;;9.85;77.69
78745;BME280;68064;53.100;8.824;2023-03-14T00:40:07;98911.81;;;9.84;78.08
78745;BME280;68064;53.100;8.824;2023-03-14T00:41:10;98917.84;;;9.88;77.76
78745;BME280;68064;53.100;8.824;2023-03-14T00:42:11;98911.91;;;9.90;77.74
78745;BME280;68064;53.100;8.824;2023-03-14T00:43:14;98920.47;;;9.94;76.84
78745;BME280;68064;53.100;8.824;2023-03-14T00:44:15;98916.97;;;9.86;77.87
78745;BME280;68064;53.100;8.824;2023-03-14T00:45:17;98917.78;;;9.85;78.17
78745;BME280;68064;53.100;8.824;2023-03-14T00:46:18;98914.41;;;9.86;77.69
78745;BME280;68064;53.100;8.824;2023-03-14T00:47:19;98915.19;;;9.83;77.63
78745;BME280;68064;53.100;8.824;2023-03-14T00:48:20;98929.75;;;9.86;77.96
78745;BME280;68064;53.100;8.824;2023-03-14T00:49:21;98937.41;;;9.87;77.73
78745;BME280;68064;53.100;8.824;2023-03-14T00:50:22;98940.88;;;9.92;78.11
78745;BME280;68064;53.100;8.824;2023-03-14T00:51:23;98932.34;;;9.90;77.53
78745;BME280;68064;53.100;8.824;2023-03-14T00:52:25;98933.19;;;9.89;78.15
78745;BME280;68064;53.100;8.824;2023-03-14T00:53:26;98926.41;;;9.93;78.26
78745;BME280;68064;53.100;8.824;2023-03-14T00:54:27;98923.00;;;9.92;77.66
78745;BME280;68064;53.100;8.824;2023-03-14T00:55:31;98901.72;;;9.93;76.99
78745;BME280;68064;53.100;8.824;2023-03-14T00:56:32;98900.00;;;9.92;78.01
78745;BME280;68064;53.100;8.824;2023-03-14T00:57:33;98896.53;;;9.87;77.83
78745;BME280;68064;53.100;8.824;2023-03-14T00:58:35;98891.41;;;9.87;77.84
78745;BME280;68064;53.100;8.824;2023-03-14T00:59:36;98894.75;;;9.82;78.13
78745;BME280;68064;53.100;8.824;2023-03-14T01:00:37;98903.38;;;9.88;78.50
78745;BME280;68064;53.100;8.824;2023-03-14T01:01:39;98907.63;;;9.89;77.74
78745;BME280;68064;53.100;8.824;2023-03-14T01:02:40;98904.19;;;9.86;78.28
78745;BME280;68064;53.100;8.824;2023-03-14T01:03:42;98908.47;;;9.90;78.97
78745;BME280;68064;53.100;8.824;2023-03-14T01:04:42;98900.78;;;9.85;78.48
78745;BME280;68064;53.100;8.824;2023-03-14T01:05:43;98901.63;;;9.87;77.74
78745;BME280;68064;53.100;8.824;2023-03-14T01:06:44;98894.84;;;9.89;78.58
78745;BME280;68064;53.100;8.824;2023-03-14T01:07:47;98876.94;;;9.89;77.47
78745;BME280;68064;53.100;8.824;2023-03-14T01:08:49;98873.59;;;9.92;77.19
78745;BME280;68064;53.100;8.824;2023-03-14T01:09:51;98862.41;;;9.84;77.61
78745;BME280;68064;53.100;8.824;2023-03-14T01:10:52;98881.09;;;9.81;78.74
78745;BME280;68064;53.100;8.824;2023-03-14T01:11:53;98875.25;;;9.88;77.71
78745;BME280;68064;53.100;8.824;2023-03-14T01:12:54;98871.00;;;9.89;78.05
78745;BME280;68064;53.100;8.824;2023-03-14T01:13:56;98863.31;;;9.87;77.69
78745;BME280;68064;53.100;8.824;2023-03-14T01:14:57;98854.72;;;9.82;77.74
78745;BME280;68064;53.100;8.824;2023-03-14T01:16:00;98852.94;;;9.77;78.65
78745;BME280;68064;53.100;8.824;2023-03-14T01:17:01;98846.91;;;9.73;79.58
78745;BME280;68064;53.100;8.824;2023-03-14T01:18:03;98841.88;;;9.76;78.02
78745;BME280;68064;53.100;8.824;2023-03-14T01:19:04;98842.84;;;9.86;78.30
78745;BME280;68064;53.100;8.824;2023-03-14T01:20:06;98848.78;;;9.85;78.10
78745;BME280;68064;53.100;8.824;2023-03-14T01:21:11;98838.53;;;9.83;77.98
78745;BME280;68064;53.100;8.824;2023-03-14T01:22:12;98830.00;;;9.81;78.43
78745;BME280;68064;53.100;8.824;2023-03-14T01:23:14;98829.22;;;9.87;77.59
78745;BME280;68064;53.100;8.824;2023-03-14T01:24:15;98818.97;;;9.84;78.26
78745;BME280;68064;53.100;8.824;2023-03-14T01:25:17;98818.13;;;9.86;77.64
78745;BME280;68064;53.100;8.824;2023-03-14T01:26:20;98813.84;;;9.82;78.90
78745;BME280;68064;53.100;8.824;2023-03-14T01:27:21;98803.44;;;9.70;79.14
78745;BME280;68064;53.100;8.824;2023-03-14T01:28:22;98813.81;;;9.81;78.59
78745;BME280;68064;53.100;8.824;2023-03-14T01:29:23;98818.88;;;9.76;78.79
78745;BME280;68064;53.100;8.824;2023-03-14T01:30:24;98819.63;;;9.71;78.91
78745;BME280;68064;53.100;8.824;2023-03-14T01:31:26;98828.16;;;9.71;79.67
78745;BME280;68064;53.100;8.824;2023-03-14T01:32:27;98827.44;;;9.81;80.33
78745;BME280;68064;53.100;8.824;2023-03-14T01:33:28;98830.91;;;9.85;80.90
78745;BME280;68064;53.100;8.824;2023-03-14T01:34:29;98829.88;;;9.74;79.50
78745;BME280;68064;53.100;8.824;2023-03-14T01:35:30;98818.81;;;9.73;79.13
78745;BME280;68064;53.100;8.824;2023-03-14T01:36:31;98815.38;;;9.71;79.26
78745;BME280;68064;53.100;8.824;2023-03-14T01:37:33;98812.78;;;9.68;79.57
78745;BME280;68064;53.100;8.824;2023-03-14T01:38:37;98814.50;;;9.71;78.40
78745;BME280;68064;53.100;8.824;2023-03-14T01:39:41;98829.94;;;9.75;78.23
78745;BME280;68064;53.100;8.824;2023-03-14T01:40:43;98820.56;;;9.76;78.48
78745;BME280;68064;53.100;8.824;2023-03-14T01:41:44;98813.69;;;9.72;78.37
78745;BME280;68064;53.100;8.824;2023-03-14T01:42:46;98817.97;;;9.74;79.65
78745;BME280;68064;53.100;8.824;2023-03-14T01:43:48;98801.81;;;9.75;79.12
78745;BME280;68064;53.100;8.824;2023-03-14T01:44:54;98806.88;;;9.74;79.80
78745;BME280;68064;53.100;8.824;2023-03-14T01:46:23;98800.06;;;9.71;80.38
78745;BME280;68064;53.100;8.824;2023-03-14T01:47:25;98797.41;;;9.65;79.67
78745;BME280;68064;53.100;8.824;2023-03-14T01:48:26;98797.50;;;9.70;79.16
78745;BME280;68064;53.100;8.824;2023-03-14T01:49:30;98788.97;;;9.69;78.95
78745;BME280;68064;53.100;8.824;2023-03-14T01:50:33;98796.59;;;9.68;79.71
78745;BME280;68064;53.100;8.824;2023-03-14T01:51:40;98794.00;;;9.63;79.92
78745;BME280;68064;53.100;8.824;2023-03-14T01:52:44;98789.78;;;9.68;78.85
78745;BME280;68064;53.100;8.824;2023-03-14T01:53:49;98791.53;;;9.69;81.29
78745;BME280;68064;53.100;8.824;2023-03-14T01:54:55;98788.03;;;9.64;80.49
78745;BME280;68064;53.100;8.824;2023-03-14T01:55:57;98772.69;;;9.63;81.43
78745;BME280;68064;53.100;8.824;2023-03-14T01:57:06;98779.50;;;9.64;80.83
78745;BME280;68064;53.100;8.824;2023-03-14T01:58:08;98772.66;;;9.60;80.17
78745;BME280;68064;53.100;8.824;2023-03-14T01:59:13;98774.38;;;9.64;79.63
78745;BME280;68064;53.100;8.824;2023-03-14T02:00:17;98771.91;;;9.67;79.36
78745;BME280;68064;53.100;8.824;2023-03-14T02:01:21;98768.50;;;9.68;79.32
78745;BME280;68064;53.100;8.824;2023-03-14T02:02:26;98760.78;;;9.65;80.78
78745;BME280;68064;53.100;8.824;2023-03-14T02:03:30;98771.00;;;9.63;80.28
78745;BME280;68064;53.100;8.824;2023-03-14T02:04:35;98771.91;;;9.68;78.70
78745;BME280;68064;53.100;8.824;2023-03-14T02:05:38;98772.81;;;9.73;81.54
78745;BME280;68064;53.100;8.824;2023-03-14T02:06:49;98786.44;;;9.74;78.85
78745;BME280;68064;53.100;8.824;2023-03-14T02:07:53;98783.00;;;9.70;78.95
78745;BME280;68064;53.100;8.824;2023-03-14T02:08:56;98777.88;;;9.70;79.06
78745;BME280;68064;53.100;8.824;2023-03-14T02:09:58;98774.50;;;9.71;79.30
78745;BME280;68064;53.100;8.824;2023-03-14T02:10:59;98779.59;;;9.70;78.83
78745;BME280;68064;53.100;8.824;2023-03-14T02:12:01;98782.16;;;9.71;79.25
78745;BME280;68064;53.100;8.824;2023-03-14T02:13:03;98802.66;;;9.73;80.35
78745;BME280;68064;53.100;8.824;2023-03-14T02:14:05;98799.22;;;9.74;79.29
78745;BME280;68064;53.100;8.824;2023-03-14T02:15:09;98790.66;;;9.69;79.56
78745;BME280;68064;53.100;8.824;2023-03-14T02:16:10;98788.09;;;9.70;80.24
78745;BME280;68064;53.100;8.824;2023-03-14T02:17:12;98794.97;;;9.73;80.00
78745;BME280;68064;53.100;8.824;2023-03-14T02:18:14;98792.38;;;9.70;80.79
78745;BME280;68064;53.100;8.824;2023-03-14T02:19:20;98789.00;;;9.72;78.49
78745;BME280;68064;53.100;8.824;2023-03-14T02:20:31;98794.06;;;9.69;80.86
78745;BME280;68064;53.100;8.824;2023-03-14T02:21:42;98800.88;;;9.70;79.49
78745;BME280;68064;53.100;8.824;2023-03-14T02:22:46;98795.69;;;9.64;79.91
78745;BME280;68064;53.100;8.824;2023-03-14T02:23:53;98798.28;;;9.66;79.38
78745;BME280;68064;53.100;8.824;2023-03-14T02:25:08;98797.47;;;9.68;81.07
78745;BME280;68064;53.100;8.824;2023-03-14T02:26:12;98802.56;;;9.67;81.07
78745;BME280;68064;53.100;8.824;2023-03-14T02:27:18;98798.31;;;9.70;80.69
78745;BME280;68064;53.100;8.824;2023-03-14T02:28:21;98802.53;;;9.65;78.85
78745;BME280;68064;53.100;8.824;2023-03-14T02:29:22;98806.03;;;9.73;78.41
78745;BME280;68064;53.100;8.824;2023-03-14T02:30:24;98803.50;;;9.75;78.37
78745;BME280;68064;53.100;8.824;2023-03-14T02:31:26;98810.34;;;9.76;78.43
78745;BME280;68064;53.100;8.824;2023-03-14T02:32:29;98812.09;;;9.80;78.71
78745;BME280;68064;53.100;8.824;2023-03-14T02:33:31;98817.22;;;9.83;80.59
78745;BME280;68064;53.100;8.824;2023-03-14T02:34:33;98809.53;;;9.80;80.21
78745;BME280;68064;53.100;8.824;2023-03-14T02:35:39;98801.00;;;9.76;79.38
78745;BME280;68064;53.100;8.824;2023-03-14T02:36:41;98818.09;;;9.83;80.38
78745;BME280;68064;53.100;8.824;2023-03-14T02:37:46;98815.50;;;9.79;79.07
78745;BME280;68064;53.100;8.824;2023-03-14T02:38:53;98806.09;;;9.76;79.21
78745;BME280;68064;53.100;8.824;2023-03-14T02:39:56;98812.03;;;9.75;79.73
78745;BME280;68064;53.100;8.824;2023-03-14T02:40:57;98812.00;;;9.74;79.18
78745;BME280;68064;53.100;8.824;2023-03-14T02:41:58;98812.91;;;9.77;78.13
78745;BME280;68064;53.100;8.824;2023-03-14T02:43:01;98803.59;;;9.81;78.65
78745;BME280;68064;53.100;8.824;2023-03-14T02:44:02;98807.91;;;9.86;80.48
78745;BME280;68064;53.100;8.824;2023-03-14T02:46:49;98807.00;;;9.81;78.55
78745;BME280;68064;53.100;8.824;2023-03-14T02:47:53;98805.31;;;9.82;78.58
78745;BME280;68064;53.100;8.824;2023-03-14T02:48:57;98802.81;;;9.86;79.39
78745;BME280;68064;53.100;8.824;2023-03-14T02:50:03;98802.03;;;9.93;79.46
78745;BME280;68064;53.100;8.824;2023-03-14T02:51:05;98800.25;;;9.86;78.42
78745;BME280;68064;53.100;8.824;2023-03-14T02:52:07;98800.34;;;9.94;79.64
78745;BME280;68064;53.100;8.824;2023-03-14T02:53:08;98803.09;;;10.07;80.13
78745;BME280;68064;53.100;8.824;2023-03-14T02:54:09;98791.03;;;9.97;78.99
78745;BME280;68064;53.100;8.824;2023-03-14T02:55:10;98795.22;;;9.91;79.53
78745;BME280;68064;53.100;8.824;2023-03-14T02:56:12;98793.44;;;9.85;79.00
78745;BME280;68064;53.100;8.824;2023-03-14T02:57:12;98796.91;;;9.89;79.06
78745;BME280;68064;53.100;8.824;2023-03-14T02:58:15;98784.91;;;9.85;79.34
78745;BME280;68064;53.100;8.824;2023-03-14T02:59:16;98790.09;;;9.91;79.02
78745;BME280;68064;53.100;8.824;2023-03-14T03:00:18;98789.31;;;9.95;79.60
78745;BME280;68064;53.100;8.824;2023-03-14T03:01:19;98790.22;;;10.00;78.43
78745;BME280;68064;53.100;8.824;2023-03-14T03:02:20;98787.63;;;9.97;78.97
78745;BME280;68064;53.100;8.824;2023-03-14T03:03:21;98790.28;;;10.06;79.27
78745;BME280;68064;53.100;8.824;2023-03-14T03:04:23;98795.31;;;10.00;78.32
78745;BME280;68064;53.100;8.824;2023-03-14T03:05:24;98787.63;;;9.97;78.67
78745;BME280;68064;53.100;8.824;2023-03-14T03:06:25;98790.16;;;9.95;78.84
78745;BME280;68064;53.100;8.824;2023-03-14T03:07:26;98785.88;;;9.94;78.16
78745;BME280;68064;53.100;8.824;2023-03-14T03:08:27;98776.59;;;10.01;78.61
78745;BME280;68064;53.100;8.824;2023-03-14T03:09:29;98783.38;;;9.99;78.75
78745;BME280;68064;53.100;8.824;2023-03-14T03:10:30;98786.94;;;10.11;78.49
78745;BME280;68064;53.100;8.824;2023-03-14T03:11:31;98784.25;;;10.02;78.31
78745;BME280;68064;53.100;8.824;2023-03-14T03:12:33;98780.00;;;10.03;78.35
78745;BME280;68064;53.100;8.824;2023-03-14T03:13:35;98778.34;;;10.05;79.00
78745;BME280;68064;53.100;8.824;2023-03-14T03:14:36;98777.53;;;10.09;78.92
78745;BME280;68064;53.100;8.824;2023-03-14T03:15:37;98778.50;;;10.16;78.96
78745;BME280;68064;53.100;8.824;2023-03-14T03:16:40;98769.13;;;10.15;79.02
78745;BME280;68064;53.100;8.824;2023-03-14T03:17:41;98769.81;;;10.06;78.85
78745;BME280;68064;53.100;8.824;2023-03-14T03:18:42;98773.19;;;10.00;78.58
78745;BME280;68064;53.100;8.824;2023-03-14T03:19:43;98773.41;;;10.17;78.79
78745;BME280;68064;53.100;8.824;2023-03-14T03:20:45;98776.81;;;10.15;78.50
78745;BME280;68064;53.100;8.824;2023-03-14T03:21:45;98777.75;;;10.26;77.80
78745;BME280;68064;53.100;8.824;2023-03-14T03:22:46;98768.16;;;10.08;77.61
78745;BME280;68064;53.100;8.824;2023-03-14T03:23:47;98770.75;;;10.13;79.02
78745;BME280;68064;53.100;8.824;2023-03-14T03:24:48;98761.28;;;10.05;78.80
78745;BME280;68064;53.100;8.824;2023-03-14T03:25:50;98757.94;;;10.09;78.66
78745;BME280;68064;53.100;8.824;2023-03-14T03:26:51;98765.75;;;10.19;78.50
78745;BME280;68064;53.100;8.824;2023-03-14T03:27:52;98760.50;;;10.09;77.94
78745;BME280;68064;53.100;8.824;2023-03-14T03:28:55;98765.78;;;10.22;77.74
78745;BME280;68064;53.100;8.824;2023-03-14T03:29:59;98767.50;;;10.23;78.17
78745;BME280;68064;53.100;8.824;2023-03-14T03:31:07;98760.63;;;10.19;78.08
78745;BME280;68064;53.100;8.824;2023-03-14T03:32:08;98760.59;;;10.14;77.87
78745;BME280;68064;53.100;8.824;2023-03-14T03:33:13;98764.75;;;10.07;78.51
78745;BME280;68064;53.100;8.824;2023-03-14T03:34:14;98759.63;;;10.09;78.29
78745;BME280;68064;53.100;8.824;2023-03-14T03:35:15;98766.47;;;10.10;78.20
78745;BME280;68064;53.100;8.824;2023-03-14T03:36:20;98762.22;;;10.10;78.09
78745;BME280;68064;53.100;8.824;2023-03-14T03:37:22;98769.97;;;10.14;78.39
78745;BME280;68064;53.100;8.824;2023-03-14T03:38:23;98755.41;;;10.13;77.50
78745;BME280;68064;53.100;8.824;2023-03-14T03:39:24;98761.34;;;10.10;78.04
78745;BME280;68064;53.100;8.824;2023-03-14T03:40:25;98762.28;;;10.14;78.92
78745;BME280;68064;53.100;8.824;2023-03-14T03:41:26;98759.66;;;10.12;78.49
78745;BME280;68064;53.100;8.824;2023-03-14T03:42:27;98763.94;;;10.13;78.41
78745;BME280;68064;53.100;8.824;2023-03-14T03:43:29;98759.66;;;10.12;78.51
78745;BME280;68064;53.100;8.824;2023-03-14T03:44:34;98770.00;;;10.17;78.95
78745;BME280;68064;53.100;8.824;2023-03-14T03:45:35;98763.09;;;10.13;78.45
78745;BME280;68064;53.100;8.824;2023-03-14T03:46:36;98775.88;;;10.13;79.61
78745;BME280;68064;53.100;8.824;2023-03-14T03:47:37;98771.72;;;10.18;78.59
78745;BME280;68064;53.100;8.824;2023-03-14T03:48:38;98767.41;;;10.15;78.79
78745;BME280;68064;53.100;8.824;2023-03-14T03:49:39;98761.47;;;10.15;79.60
78745;BME280;68064;53.100;8.824;2023-03-14T03:50:44;98763.09;;;10.11;78.42
78745;BME280;68064;53.100;8.824;2023-03-14T03:51:45;98759.66;;;10.10;78.99
78745;BME280;68064;53.100;8.824;2023-03-14T03:52:46;98759.63;;;10.09;79.57
78745;BME280;68064;53.100;8.824;2023-03-14T03:53:47;98769.13;;;10.15;78.99
78745;BME280;68064;53.100;8.824;2023-03-14T03:54:48;98761.47;;;10.15;79.68
78745;BME280;68064;53.100;8.824;2023-03-14T03:55:49;98764.84;;;10.15;79.77
78745;BME280;68064;53.100;8.824;2023-03-14T03:56:51;98763.94;;;10.13;79.35
78745;BME280;68064;53.100;8.824;2023-03-14T03:57:52;98766.47;;;10.10;79.62
78745;BME280;68064;53.100;8.824;2023-03-14T03:58:53;98754.63;;;10.15;79.18
78745;BME280;68064;53.100;8.824;2023-03-14T03:59:55;98763.88;;;10.08;80.43
78745;BME280;68064;53.100;8.824;2023-03-14T04:00:56;98752.75;;;10.03;79.87
78745;BME280;68064;53.100;8.824;2023-03-14T04:01:57;98760.44;;;10.03;80.63
78745;BME280;68064;53.100;8.824;2023-03-14T04:02:59;98761.28;;;10.04;79.80
78745;BME280;68064;53.100;8.824;2023-03-14T04:04:00;98753.63;;;10.05;79.88
78745;BME280;68064;53.100;8.824;2023-03-14T04:05:01;98753.66;;;10.08;79.19
78745;BME280;68064;53.100;8.824;2023-03-14T04:06:04;98752.81;;;10.09;78.69
78745;BME280;68064;53.100;8.824;2023-03-14T04:07:05;98751.97;;;10.07;79.25
78745;BME280;68064;53.100;8.824;2023-03-14T04:08:06;98745.97;;;10.05;79.11
78745;BME280;68064;53.100;8.824;2023-03-14T04:09:07;98758.75;;;10.04;79.71
78745;BME280;68064;53.100;8.824;2023-03-14T04:10:09;98764.75;;;10.07;79.06
78745;BME280;68064;53.100;8.824;2023-03-14T04:11:10;98763.06;;;10.09;78.60
78745;BME280;68064;53.100;8.824;2023-03-14T04:12:11;98762.22;;;10.10;78.85
78745;BME280;68064;53.100;8.824;2023-03-14T04:13:15;98759.63;;;10.07;79.63
78745;BME280;68064;53.100;8.824;2023-03-14T04:14:16;98763.88;;;10.08;78.84
78745;BME280;68064;53.100;8.824;2023-03-14T04:15:19;98758.91;;;10.15;79.10
78745;BME280;68064;53.100;8.824;2023-03-14T04:16:21;98764.00;;;10.15;79.08
78745;BME280;68064;53.100;8.824;2023-03-14T04:17:23;98762.22;;;10.10;78.58
78745;BME280;68064;53.100;8.824;2023-03-14T04:18:24;98760.50;;;10.08;78.26
78745;BME280;68064;53.100;8.824;2023-03-14T04:19:25;98757.09;;;10.10;78.33
78745;BME280;68064;53.100;8.824;2023-03-14T04:20:26;98764.88;;;10.17;78.20
78745;BME280;68064;53.100;8.824;2023-03-14T04:21:27;98751.13;;;10.10;78.18
78745;BME280;68064;53.100;8.824;2023-03-14T04:22:31;98759.66;;;10.10;78.55
78745;BME280;68064;53.100;8.824;2023-03-14T04:23:32;98753.78;;;10.15;78.38
78745;BME280;68064;53.100;8.824;2023-03-14T04:24:33;98753.69;;;10.10;78.90
78745;BME280;68064;53.100;8.824;2023-03-14T04:25:35;98745.13;;;10.05;78.66
78745;BME280;68064;53.100;8.824;2023-03-14T04:26:36;98738.34;;;10.11;78.35
78745;BME280;68064;53.100;8.824;2023-03-14T04:27:37;98746.88;;;10.12;78.86
78745;BME280;68064;53.100;8.824;2023-03-14T04:28:38;98752.00;;;10.10;78.20
78745;BME280;68064;53.100;8.824;2023-03-14T04:29:39;98744.28;;;10.09;78.63
78745;BME280;68064;53.100;8.824;2023-03-14T04:30:42;98748.53;;;10.07;78.72
78745;BME280;68064;53.100;8.824;2023-03-14T04:31:43;98740.00;;;10.05;78.45
78745;BME280;68064;53.100;8.824;2023-03-14T04:32:44;98744.22;;;10.03;78.87
78745;BME280;68064;53.100;8.824;2023-03-14T04:33:45;98747.69;;;10.05;77.73
78745;BME280;68064;53.100;8.824;2023-03-14T04:34:47;98742.56;;;10.05;78.80
78745;BME280;68064;53.100;8.824;2023-03-14T04:35:55;98736.56;;;10.03;78.86
78745;BME280;68064;53.100;8.824;2023-03-14T04:37:05;98736.56;;;10.01;78.75
78745;BME280;68064;53.100;8.824;2023-03-14T04:38:12;98736.59;;;10.06;78.81
78745;BME280;68064;53.100;8.824;2023-03-14T04:39:44;98736.56;;;10.01;79.03
78745;BME280;68064;53.100;8.824;2023-03-14T04:41:06;98712.50;;;9.84;79.72
78745;BME280;68064;53.100;8.824;2023-03-14T04:42:33;98721.06;;;9.88;79.18
78745;BME280;68064;53.100;8.824;2023-03-14T04:44:01;98734.81;;;9.97;79.05
78745;BME280;68064;53.100;8.824;2023-03-14T04:45:22;98712.50;;;9.84;78.83
78745;BME280;68064;53.100;8.824;2023-03-14T04:46:28;98724.56;;;9.99;79.43
78745;BME280;68064;53.100;8.824;2023-03-14T04:47:29;98724.47;;;9.88;78.65
78745;BME280;68064;53.100;8.824;2023-03-14T04:48:36;98719.38;;;9.90;79.33
78745;BME280;68064;53.100;8.824;2023-03-14T04:49:40;98736.56;;;10.01;79.33
78745;BME280;68064;53.100;8.824;2023-03-14T04:50:43;98730.56;;;9.98;79.06
78745;BME280;68064;53.100;8.824;2023-03-14T04:51:44;98736.53;;;10.00;79.61
78745;BME280;68064;53.100;8.824;2023-03-14T04:52:45;98736.53;;;9.98;79.46
78745;BME280;68064;53.100;8.824;2023-03-14T04:53:46;98737.28;;;9.93;79.73
78745;BME280;68064;53.100;8.824;2023-03-14T04:54:47;98727.06;;;9.91;78.54
78745;BME280;68064;53.100;8.824;2023-03-14T04:55:49;98747.59;;;9.97;78.81
78745;BME280;68064;53.100;8.824;2023-03-14T04:56:50;98732.22;;;9.96;78.72
78745;BME280;68064;53.100;8.824;2023-03-14T04:58:19;98738.25;;;10.02;78.62
78745;BME280;68064;53.100;8.824;2023-03-14T04:59:25;98739.91;;;9.99;78.96
78745;BME280;68064;53.100;8.824;2023-03-14T05:00:46;98728.75;;;9.92;78.93
78745;BME280;68064;53.100;8.824;2023-03-14T05:01:51;98728.78;;;9.94;79.52
78745;BME280;68064;53.100;8.824;2023-03-14T05:02:52;98741.66;;;10.03;78.29
78745;BME280;68064;53.100;8.824;2023-03-14T05:03:54;98730.56;;;9.98;79.00
78745;BME280;68064;53.100;8.824;2023-03-14T05:04:54;98747.59;;;9.97;78.83
78745;BME280;68064;53.100;8.824;2023-03-14T05:05:55;98747.56;;;9.96;78.93
78745;BME280;68064;53.100;8.824;2023-03-14T05:06:56;98742.50;;;10.00;78.11
78745;BME280;68064;53.100;8.824;2023-03-14T05:07:57;98752.72;;;10.02;78.38
78745;BME280;68064;53.100;8.824;2023-03-14T05:08:59;98739.09;;;10.00;78.14
78745;BME280;68064;53.100;8.824;2023-03-14T05:10:02;98740.78;;;9.99;77.85
78745;BME280;68064;53.100;8.824;2023-03-14T05:11:04;98747.53;;;9.94;77.89
78745;BME280;68064;53.100;8.824;2023-03-14T05:12:06;98744.16;;;9.95;78.11
78745;BME280;68064;53.100;8.824;2023-03-14T05:13:07;98739.06;;;9.95;77.37
78745;BME280;68064;53.100;8.824;2023-03-14T05:14:25;98746.72;;;9.95;77.84
78745;BME280;68064;53.100;8.824;2023-03-14T05:15:26;98734.72;;;9.91;77.70
78745;BME280;68064;53.100;8.824;2023-03-14T05:16:27;98743.22;;;9.89;78.29
78745;BME280;68064;53.100;8.824;2023-03-14T05:17:30;98748.31;;;9.87;77.97
78745;BME280;68064;53.100;8.824;2023-03-14T05:18:35;98745.75;;;9.86;78.33
78745;BME280;68064;53.100;8.824;2023-03-14T05:19:36;98755.19;;;9.91;77.66
78745;BME280;68064;53.100;8.824;2023-03-14T05:20:37;98752.59;;;9.90;77.36
78745;BME280;68064;53.100;8.824;2023-03-14T05:21:38;98752.56;;;9.85;77.26
78745;BME280;68064;53.100;8.824;2023-03-14T05:22:39;98748.25;;;9.81;77.96
78745;BME280;68064;53.100;8.824;2023-03-14T05:23:40;98750.72;;;9.75;78.23
78745;BME280;68064;53.100;8.824;2023-03-14T05:24:42;98747.34;;;9.78;77.36
78745;BME280;68064;53.100;8.824;2023-03-14T05:27:44;98749.94;;;9.81;77.71
78745;BME280;68064;53.100;8.824;2023-03-14T05:30:34;98730.31;;;9.80;76.66
78745;BME280;68064;53.100;8.824;2023-03-14T05:31:35;98738.84;;;9.79;77.78
78745;BME280;68064;53.100;8.824;2023-03-14T05:32:37;98729.38;;;9.73;76.96
78745;BME280;68064;53.100;8.824;2023-03-14T05:33:38;98738.75;;;9.71;77.43
78745;BME280;68064;53.100;8.824;2023-03-14T05:34:40;98725.06;;;9.68;77.49
78745;BME280;68064;53.100;8.824;2023-03-14T05:35:41;98723.41;;;9.70;77.81
78745;BME280;68064;53.100;8.824;2023-03-14T05:36:42;98727.66;;;9.69;77.80
78745;BME280;68064;53.100;8.824;2023-03-14T05:37:44;98732.75;;;9.71;77.22
78745;BME280;68064;53.100;8.824;2023-03-14T05:38:45;98725.06;;;9.68;77.79
78745;BME280;68064;53.100;8.824;2023-03-14T05:39:46;98725.09;;;9.71;76.28
78745;BME280;68064;53.100;8.824;2023-03-14T05:40:47;98717.44;;;9.69;76.41
78745;BME280;68064;53.100;8.824;2023-03-14T05:41:48;98719.13;;;9.69;76.50
78745;BME280;68064;53.100;8.824;2023-03-14T05:42:49;98723.41;;;9.70;76.64